Time;durP1;ratioP1;P1;durP2;ratioP2;P2;SDS_P1;SDS_P2;PMS_P1;PMS_P2;Temp;Humidity;BMP_temperature;BMP_pressure;BME280_temperature;BME280_humidity;BME280_pressure;Samples;Min_cycle;Max_cycle;Signal;HPM_P1;HPM_P2
2023/02/12 00:00:58;;;;;;;1.30;1.13;;;17.90;37.10;;;;;;6156926;23;20139;-79
2023/02/12 00:03:23;;;;;;;1.02;0.98;;;17.90;37.10;;;;;;6156876;23;20452;-79
2023/02/12 00:05:49;;;;;;;1.40;1.10;;;17.90;37.10;;;;;;6131268;23;20237;-79
2023/02/12 00:08:15;;;;;;;0.90;0.90;;;17.90;37.10;;;;;;6130881;23;20141;-79
2023/02/12 00:10:42;;;;;;;1.25;1.15;;;17.90;37.10;;;;;;6157032;23;20144;-79
2023/02/12 00:13:09;;;;;;;1.50;1.40;;;17.90;37.10;;;;;;6106764;23;20136;-79
2023/02/12 00:15:38;;;;;;;1.30;1.20;;;17.90;37.10;;;;;;6131010;23;20144;-79
2023/02/12 00:18:03;;;;;;;1.20;1.10;;;17.90;37.20;;;;;;6157271;23;20144;-79
2023/02/12 00:20:29;;;;;;;1.23;1.13;;;17.90;37.20;;;;;;6131064;23;20148;-80
2023/02/12 00:22:55;;;;;;;1.20;1.10;;;17.90;37.20;;;;;;6156746;23;20135;-79
2023/02/12 00:25:20;;;;;;;1.20;1.08;;;17.80;37.30;;;;;;6156761;23;20607;-79
2023/02/12 00:27:46;;;;;;;0.85;0.80;;;17.80;37.30;;;;;;6156742;23;20260;-79
2023/02/12 00:30:12;;;;;;;1.45;1.30;;;17.90;37.30;;;;;;6130827;23;20139;-79
2023/02/12 00:32:37;;;;;;;1.10;1.00;;;17.80;37.30;;;;;;6131001;23;20522;-79
2023/02/12 00:35:03;;;;;;;1.50;1.10;;;17.80;37.30;;;;;;6130545;23;20210;-79
2023/02/12 00:37:29;;;;;;;1.30;1.08;;;17.80;37.40;;;;;;6156707;23;20179;-79
2023/02/12 00:39:54;;;;;;;1.33;1.00;;;17.80;37.30;;;;;;6156345;23;20191;-79
2023/02/12 00:42:20;;;;;;;1.40;1.23;;;17.80;37.40;;;;;;6156587;23;20639;-79
2023/02/12 00:44:46;;;;;;;1.40;1.20;;;17.80;37.30;;;;;;6156593;23;20143;-79
2023/02/12 00:47:11;;;;;;;1.30;1.15;;;17.80;37.40;;;;;;6130911;23;20460;-80
2023/02/12 00:49:37;;;;;;;1.80;1.10;;;17.80;37.40;;;;;;6156563;23;20466;-79
2023/02/12 00:52:03;;;;;;;1.33;1.20;;;17.80;37.40;;;;;;6156361;23;20520;-80
2023/02/12 00:54:29;;;;;;;1.17;1.08;;;17.80;37.40;;;;;;6130775;23;20140;-80
2023/02/12 00:56:55;;;;;;;1.58;1.30;;;17.80;37.40;;;;;;6130372;23;20151;-80
2023/02/12 00:59:22;;;;;;;1.30;1.10;;;17.80;37.40;;;;;;6106731;23;20143;-80
2023/02/12 01:01:48;;;;;;;1.20;1.10;;;17.80;37.40;;;;;;6130482;23;20223;-80
2023/02/12 01:04:14;;;;;;;1.38;1.10;;;17.80;37.50;;;;;;6156165;23;20139;-80
2023/02/12 01:06:39;;;;;;;1.35;1.20;;;17.90;37.50;;;;;;6130288;23;20163;-79
2023/02/12 01:09:05;;;;;;;1.25;1.10;;;17.80;37.50;;;;;;6130426;23;20219;-79
2023/02/12 01:11:31;;;;;;;3.17;1.45;;;17.80;37.50;;;;;;6130338;23;20169;-80
2023/02/12 01:13:57;;;;;;;1.10;1.00;;;17.80;37.40;;;;;;6156276;23;20136;-80
2023/02/12 01:16:23;;;;;;;2.25;1.30;;;17.80;37.50;;;;;;6130211;23;20586;-80
2023/02/12 01:18:49;;;;;;;1.85;1.10;;;17.80;37.50;;;;;;6105880;23;20131;-80
2023/02/12 01:21:18;;;;;;;1.20;1.10;;;17.80;37.50;;;;;;6156175;23;20268;-80
2023/02/12 01:23:44;;;;;;;1.50;1.10;;;17.80;37.40;;;;;;6156407;23;20140;-80
2023/02/12 01:26:10;;;;;;;1.48;1.30;;;17.80;37.50;;;;;;6130185;23;20186;-79
2023/02/12 01:28:38;;;;;;;1.42;1.20;;;17.80;37.90;;;;;;6130536;23;20152;-79
2023/02/12 01:31:09;;;;;;;1.48;1.25;;;17.80;37.60;;;;;;6130461;23;20143;-80
2023/02/12 01:33:35;;;;;;;1.20;1.10;;;17.80;37.60;;;;;;6156322;23;20567;-79
2023/02/12 01:36:00;;;;;;;1.42;1.10;;;17.80;37.60;;;;;;6156148;23;20183;-79
2023/02/12 01:38:26;;;;;;;1.50;1.33;;;17.80;37.60;;;;;;6156018;23;20475;-79
2023/02/12 01:40:52;;;;;;;2.13;1.17;;;17.80;37.60;;;;;;6155831;23;20586;-80
2023/02/12 01:43:17;;;;;;;1.20;1.10;;;17.80;37.60;;;;;;6130148;23;20606;-79
2023/02/12 01:45:46;;;;;;;1.88;1.20;;;17.80;37.60;;;;;;6129884;23;20501;-79
2023/02/12 01:48:13;;;;;;;1.20;1.10;;;17.80;37.70;;;;;;6130523;23;20143;-79
2023/02/12 01:50:39;;;;;;;1.20;1.10;;;17.80;37.70;;;;;;6129890;23;20230;-79
2023/02/12 01:53:04;;;;;;;1.45;1.25;;;17.70;37.60;;;;;;6155902;23;20563;-80
2023/02/12 01:55:30;;;;;;;1.67;1.10;;;17.80;37.70;;;;;;6130221;23;20289;-79
2023/02/12 01:57:56;;;;;;;1.30;1.20;;;17.80;37.70;;;;;;6129958;23;20139;-80
2023/02/12 02:00:22;;;;;;;1.35;1.25;;;17.70;37.70;;;;;;6129966;23;20635;-80
2023/02/12 02:02:51;;;;;;;1.48;1.20;;;17.70;37.70;;;;;;6082039;23;20154;-79
2023/02/12 02:05:22;;;;;;;1.35;1.23;;;17.80;37.80;;;;;;6155691;23;20617;-80
2023/02/12 02:07:47;;;;;;;1.40;1.30;;;17.70;37.70;;;;;;6129764;23;20132;-80
2023/02/12 02:10:13;;;;;;;1.25;1.15;;;17.70;37.70;;;;;;6105375;23;20148;-80
2023/02/12 02:15:20;;;;;;;1.73;1.30;;;17.70;37.80;;;;;;6155754;23;20452;-80
2023/02/12 02:17:56;;;;;;;1.13;0.95;;;17.70;37.80;;;;;;6105545;23;20191;-79
2023/02/12 02:20:45;;;;;;;1.30;1.20;;;17.70;37.80;;;;;;6155724;23;20143;-79
2023/02/12 02:23:33;;;;;;;1.60;1.10;;;17.70;37.80;;;;;;6156057;23;20218;-79
2023/02/12 02:26:32;;;;;;;1.45;1.20;;;17.70;37.90;;;;;;6155585;23;20167;-79
2023/02/12 02:29:12;;;;;;;1.33;1.23;;;17.70;38.00;;;;;;6155745;23;20483;-79
2023/02/12 02:31:42;;;;;;;1.35;1.20;;;17.70;37.90;;;;;;6105224;23;20139;-79
2023/02/12 02:34:28;;;;;;;1.77;1.20;;;17.70;38.00;;;;;;6105273;23;20178;-79
2023/02/12 02:37:09;;;;;;;1.63;1.20;;;17.70;38.00;;;;;;6129705;23;20136;-80
2023/02/12 02:39:47;;;;;;;1.20;1.10;;;17.70;38.00;;;;;;6155683;23;20522;-80
2023/02/12 02:42:28;;;;;;;1.58;1.20;;;17.70;37.90;;;;;;6155700;23;20151;-80
2023/02/12 02:45:02;;;;;;;1.70;1.00;;;17.70;38.00;;;;;;6105088;23;20154;-79
2023/02/12 02:47:33;;;;;;;1.50;1.20;;;17.60;37.90;;;;;;6129642;23;20623;-79
2023/02/12 02:50:02;;;;;;;1.50;1.20;;;17.70;38.00;;;;;;6130088;23;20132;-79
2023/02/12 02:52:34;;;;;;;1.30;1.20;;;17.70;37.90;;;;;;6105627;23;20136;-80
2023/02/12 02:55:02;;;;;;;1.33;1.20;;;17.70;38.00;;;;;;6105776;23;20128;-79
2023/02/12 02:57:33;;;;;;;1.50;1.30;;;17.70;38.70;;;;;;6129516;23;20511;-79
2023/02/12 03:00:04;;;;;;;1.20;1.10;;;17.60;38.00;;;;;;6129707;23;20128;-79
2023/02/12 03:02:31;;;;;;;1.25;1.10;;;17.70;38.00;;;;;;6105792;23;20132;-79
2023/02/12 03:05:00;;;;;;;1.42;1.10;;;17.70;38.10;;;;;;6129313;23;20136;-79
2023/02/12 03:07:37;;;;;;;1.25;1.05;;;17.70;38.10;;;;;;6105612;23;20128;-79
2023/02/12 03:10:05;;;;;;;1.90;1.15;;;17.70;38.10;;;;;;6155480;23;20172;-79
2023/02/12 03:12:35;;;;;;;1.45;1.20;;;17.60;38.10;;;;;;6155819;23;20457;-79
2023/02/12 03:15:13;;;;;;;1.10;1.00;;;17.60;38.10;;;;;;6106419;23;20136;-79
2023/02/12 03:17:41;;;;;;;1.48;1.20;;;17.60;38.20;;;;;;6107503;23;20139;-79
2023/02/12 03:20:15;;;;;;;1.60;1.30;;;17.60;38.20;;;;;;6107322;23;20140;-80
2023/02/12 03:22:43;;;;;;;1.73;1.20;;;17.60;38.20;;;;;;6107676;23;20139;-79
2023/02/12 03:25:13;;;;;;;1.63;1.20;;;17.60;38.20;;;;;;6131687;23;20179;-79
2023/02/12 03:27:50;;;;;;;1.48;1.20;;;17.60;38.20;;;;;;6131851;23;20552;-79
2023/02/12 03:30:16;;;;;;;1.23;1.13;;;17.60;38.20;;;;;;6131941;23;20463;-80
2023/02/12 03:33:04;;;;;;;1.55;1.30;;;17.60;38.20;;;;;;6132024;23;20128;-79
2023/02/12 03:35:33;;;;;;;1.17;1.08;;;17.60;38.20;;;;;;6135185;23;20136;-78
2023/02/12 03:38:07;;;;;;;1.20;1.10;;;17.60;38.20;;;;;;6157245;23;20162;-80
2023/02/12 03:40:39;;;;;;;1.63;1.50;;;17.60;38.20;;;;;;6131116;23;20237;-79
2023/02/12 03:43:18;;;;;;;1.58;1.30;;;17.60;38.20;;;;;;6131120;23;20607;-78
2023/02/12 03:45:50;;;;;;;1.20;1.10;;;17.60;38.20;;;;;;6131013;23;20155;-79
2023/02/12 03:48:23;;;;;;;1.48;1.20;;;17.60;38.20;;;;;;6157146;23;20142;-81
2023/02/12 03:50:57;;;;;;;1.42;1.20;;;17.60;38.30;;;;;;6131172;23;20142;-81
2023/02/12 03:53:25;;;;;;;1.30;1.20;;;17.60;38.30;;;;;;6107196;23;20222;-80
2023/02/12 03:55:53;;;;;;;1.48;1.10;;;17.60;38.30;;;;;;6157378;23;20139;-79
2023/02/12 03:58:20;;;;;;;1.20;1.10;;;17.60;38.30;;;;;;6157380;23;20187;-79
2023/02/12 04:00:46;;;;;;;1.40;1.20;;;17.60;38.30;;;;;;6156949;23;20143;-79
2023/02/12 04:03:11;;;;;;;1.67;1.10;;;17.60;38.30;;;;;;6131259;23;20589;-79
2023/02/12 04:05:37;;;;;;;1.15;1.05;;;17.60;38.30;;;;;;6157150;23;20167;-79
2023/02/12 04:08:05;;;;;;;1.83;1.30;;;17.60;38.30;;;;;;6131292;23;20579;-79
2023/02/12 04:10:37;;;;;;;2.05;1.30;;;17.60;38.30;;;;;;6131301;23;20132;-79
2023/02/12 04:13:24;;;;;;;1.20;1.10;;;17.60;38.30;;;;;;6156867;23;20136;-79
2023/02/12 04:16:11;;;;;;;1.40;1.30;;;17.60;38.40;;;;;;6156881;23;20140;-79
2023/02/12 04:18:42;;;;;;;1.25;1.10;;;17.60;38.40;;;;;;6130763;23;20150;-80
2023/02/12 04:21:44;;;;;;;1.80;1.20;;;17.60;38.30;;;;;;6106568;23;20486;-80
2023/02/12 04:24:23;;;;;;;1.20;1.10;;;17.60;38.40;;;;;;6156882;23;20139;-79
2023/02/12 04:26:53;;;;;;;1.30;1.20;;;17.60;38.40;;;;;;6131823;23;20603;-79
2023/02/12 04:29:35;;;;;;;1.02;0.90;;;17.60;38.50;;;;;;6156696;23;20136;-79
2023/02/12 04:32:11;;;;;;;1.23;1.00;;;17.60;38.40;;;;;;6132858;23;20139;-80
2023/02/12 04:35:07;;;;;;;1.50;1.20;;;17.60;38.40;;;;;;6130992;23;20534;-80
2023/02/12 04:37:38;;;;;;;0.95;0.90;;;17.60;38.40;;;;;;6112443;23;20143;-80
2023/02/12 04:40:06;;;;;;;1.35;1.25;;;17.60;38.50;;;;;;6130802;23;20206;-80
2023/02/12 04:42:41;;;;;;;1.52;1.30;;;17.60;38.50;;;;;;6106516;23;20602;-80
2023/02/12 04:45:09;;;;;;;1.23;1.00;;;17.60;38.50;;;;;;6082499;23;20173;-80
2023/02/12 04:47:35;;;;;;;1.30;1.20;;;17.60;38.50;;;;;;6156862;23;20219;-79
2023/02/12 04:50:00;;;;;;;1.05;0.95;;;17.60;38.50;;;;;;6156762;23;20166;-80
2023/02/12 04:52:26;;;;;;;1.10;1.00;;;17.60;38.50;;;;;;6130455;23;20507;-79
2023/02/12 04:54:52;;;;;;;1.77;1.48;;;17.60;38.60;;;;;;6156555;23;20183;-80
2023/02/12 04:57:17;;;;;;;1.30;1.20;;;17.50;38.50;;;;;;6130832;23;20579;-80
2023/02/12 04:59:43;;;;;;;1.67;1.40;;;17.50;38.50;;;;;;6156554;23;20601;-80
2023/02/12 05:02:09;;;;;;;1.30;1.08;;;17.50;38.60;;;;;;6156405;23;20603;-79
2023/02/12 05:04:34;;;;;;;1.13;1.02;;;17.50;38.60;;;;;;6156397;23;20135;-79
2023/02/12 05:07:00;;;;;;;1.73;1.10;;;17.50;38.60;;;;;;6156253;23;20164;-79
2023/02/12 05:09:26;;;;;;;1.38;1.10;;;17.50;38.60;;;;;;6156322;23;20132;-79
2023/02/12 05:11:51;;;;;;;1.40;1.30;;;17.50;38.60;;;;;;6156456;23;20465;-80
2023/02/12 05:14:17;;;;;;;1.10;1.00;;;17.50;38.50;;;;;;6156339;23;20467;-79
2023/02/12 05:16:43;;;;;;;1.42;1.10;;;17.50;38.60;;;;;;6156363;23;20564;-79
2023/02/12 05:19:08;;;;;;;1.20;1.10;;;17.50;38.60;;;;;;6105578;23;20202;-79
2023/02/12 05:21:35;;;;;;;1.40;1.05;;;17.60;38.70;;;;;;6156271;23;20147;-79
2023/02/12 05:24:02;;;;;;;1.40;1.30;;;17.50;38.60;;;;;;6156251;23;20167;-79
2023/02/12 05:26:27;;;;;;;1.25;1.00;;;17.50;38.70;;;;;;6156029;23;20168;-79
2023/02/12 05:28:53;;;;;;;2.10;1.10;;;17.50;38.70;;;;;;6081836;23;20234;-80
2023/02/12 05:31:19;;;;;;;1.35;1.25;;;17.50;38.70;;;;;;6130202;23;20462;-79
2023/02/12 05:33:45;;;;;;;1.33;1.13;;;17.50;38.80;;;;;;6130112;23;20136;-79
2023/02/12 05:36:13;;;;;;;1.50;1.35;;;17.50;38.80;;;;;;6156140;23;20508;-79
2023/02/12 05:38:39;;;;;;;1.02;0.93;;;17.50;38.80;;;;;;6155844;23;20472;-80
2023/02/12 05:41:06;;;;;;;1.48;1.20;;;17.50;38.80;;;;;;6129852;23;20203;-80
2023/02/12 05:43:32;;;;;;;1.27;1.00;;;17.50;38.80;;;;;;6130687;23;20194;-80
2023/02/12 05:45:59;;;;;;;1.65;1.30;;;17.50;38.80;;;;;;6155931;23;20250;-80
2023/02/12 05:48:25;;;;;;;1.60;1.25;;;17.50;39.00;;;;;;6155949;23;20136;-80
2023/02/12 05:50:51;;;;;;;1.08;0.98;;;17.50;38.80;;;;;;6105861;23;20139;-80
2023/02/12 05:53:17;;;;;;;1.15;1.05;;;17.50;38.90;;;;;;6130167;23;20159;-80
2023/02/12 05:55:42;;;;;;;1.08;0.98;;;17.50;38.80;;;;;;6105852;23;20202;-80
2023/02/12 05:58:08;;;;;;;1.55;1.33;;;17.40;38.80;;;;;;6081788;23;20583;-79
2023/02/12 06:00:33;;;;;;;1.30;1.20;;;17.50;38.80;;;;;;6155880;23;20221;-80
2023/02/12 06:02:59;;;;;;;1.13;1.00;;;17.50;38.90;;;;;;6156048;23;20534;-80
2023/02/12 06:05:25;;;;;;;1.52;1.30;;;17.40;38.80;;;;;;6129776;23;20167;-79
2023/02/12 06:07:50;;;;;;;1.20;1.10;;;17.50;38.90;;;;;;6129955;23;20568;-80
2023/02/12 06:10:16;;;;;;;1.65;1.10;;;17.50;38.90;;;;;;6130016;23;20474;-80
2023/02/12 06:12:42;;;;;;;1.38;1.27;;;17.50;38.90;;;;;;6129920;23;20519;-80
2023/02/12 06:15:08;;;;;;;1.20;1.10;;;17.40;38.80;;;;;;6129824;23;20131;-79
2023/02/12 06:17:34;;;;;;;1.30;1.10;;;17.50;38.90;;;;;;6130177;23;20571;-79
2023/02/12 06:19:59;;;;;;;1.58;1.10;;;17.50;38.80;;;;;;6129739;23;20132;-79
2023/02/12 06:22:26;;;;;;;1.20;1.02;;;17.50;38.80;;;;;;6129937;23;20208;-79
2023/02/12 06:24:52;;;;;;;1.20;1.10;;;17.50;38.80;;;;;;6129426;23;20151;-79
2023/02/12 06:27:17;;;;;;;1.30;1.20;;;17.50;38.80;;;;;;6129600;23;20163;-79
2023/02/12 06:29:43;;;;;;;1.38;1.15;;;17.50;38.80;;;;;;6155736;23;20474;-79
2023/02/12 06:32:12;;;;;;;1.35;1.00;;;17.50;38.90;;;;;;6155602;23;20258;-79
2023/02/12 06:34:38;;;;;;;1.42;1.20;;;17.50;38.90;;;;;;6155680;23;20167;-79
2023/02/12 06:37:04;;;;;;;1.38;1.13;;;17.50;38.90;;;;;;6155654;23;20179;-79
2023/02/12 06:39:29;;;;;;;1.20;1.10;;;17.50;38.90;;;;;;6129821;23;20573;-80
2023/02/12 06:41:55;;;;;;;1.83;1.20;;;17.50;39.00;;;;;;6129781;23;20227;-78
2023/02/12 06:44:21;;;;;;;1.48;1.30;;;17.50;39.00;;;;;;6129643;23;20518;-79
2023/02/12 06:46:46;;;;;;;1.50;1.27;;;17.40;38.90;;;;;;6155495;23;20167;-80
2023/02/12 06:49:13;;;;;;;1.30;1.20;;;17.50;39.00;;;;;;6129521;23;20135;-79
2023/02/12 06:51:40;;;;;;;1.33;1.23;;;17.50;39.00;;;;;;6131536;23;20135;-80
2023/02/12 06:54:11;;;;;;;1.80;1.30;;;17.50;39.10;;;;;;6107952;23;20132;-79
2023/02/12 06:56:36;;;;;;;1.40;1.30;;;17.50;39.00;;;;;;6131844;23;20136;-80
2023/02/12 06:59:02;;;;;;;1.60;1.17;;;17.50;39.10;;;;;;6157583;23;20140;-79
2023/02/12 07:01:28;;;;;;;1.25;1.10;;;17.50;39.10;;;;;;6131707;23;20471;-79
2023/02/12 07:03:56;;;;;;;1.73;1.10;;;17.50;39.10;;;;;;6083169;23;20258;-79
2023/02/12 07:06:22;;;;;;;1.50;1.30;;;17.40;39.00;;;;;;6107229;23;20171;-79
2023/02/12 07:08:48;;;;;;;1.10;0.90;;;17.40;39.00;;;;;;6131541;23;20131;-79
2023/02/12 07:11:14;;;;;;;1.73;1.10;;;17.50;39.10;;;;;;6107026;23;20190;-79
2023/02/12 07:13:40;;;;;;;1.23;1.13;;;17.40;39.70;;;;;;6131681;23;20140;-79
2023/02/12 07:16:07;;;;;;;1.33;1.20;;;17.40;39.10;;;;;;6107189;23;20136;-79
2023/02/12 07:18:34;;;;;;;1.27;1.17;;;17.40;39.10;;;;;;6107380;23;20446;-80
2023/02/12 07:21:00;;;;;;;1.40;1.10;;;17.40;39.10;;;;;;6157502;23;20218;-80
2023/02/12 07:23:25;;;;;;;1.50;1.20;;;17.40;39.10;;;;;;6131310;23;20587;-79
2023/02/12 07:25:56;;;;;;;1.63;1.08;;;17.40;39.10;;;;;;6157171;23;20198;-79
2023/02/12 07:28:21;;;;;;;1.52;1.20;;;17.40;39.10;;;;;;6131597;23;20136;-79
2023/02/12 07:30:47;;;;;;;1.30;1.20;;;17.40;39.10;;;;;;6131139;23;20482;-80
2023/02/12 07:33:13;;;;;;;1.23;1.02;;;17.40;39.10;;;;;;6157383;23;20215;-79
2023/02/12 07:35:38;;;;;;;1.15;1.00;;;17.40;39.20;;;;;;6131281;23;20530;-80
2023/02/12 07:38:04;;;;;;;1.85;1.00;;;17.40;39.20;;;;;;6157004;23;20147;-80
2023/02/12 07:40:29;;;;;;;2.65;1.20;;;17.40;39.10;;;;;;6156857;23;20615;-80
2023/02/12 07:42:55;;;;;;;1.40;1.30;;;17.40;39.20;;;;;;6130910;23;20571;-80
2023/02/12 07:45:21;;;;;;;1.20;1.10;;;17.40;39.20;;;;;;6156820;23;20175;-80
2023/02/12 07:47:47;;;;;;;1.30;1.02;;;17.40;39.20;;;;;;6131032;23;20156;-79
2023/02/12 07:50:12;;;;;;;1.20;1.05;;;17.30;39.20;;;;;;6156928;23;20219;-80
2023/02/12 07:52:38;;;;;;;1.65;1.33;;;17.40;39.20;;;;;;6130612;23;20155;-79
2023/02/12 07:55:04;;;;;;;1.30;1.05;;;17.40;39.20;;;;;;6130506;23;20142;-79
2023/02/12 07:57:30;;;;;;;1.08;0.93;;;17.40;39.20;;;;;;6130951;23;20143;-79
2023/02/12 07:59:55;;;;;;;1.33;1.23;;;17.50;39.30;;;;;;6157053;23;20136;-81
2023/02/12 08:02:24;;;;;;;1.42;1.05;;;17.50;39.40;;;;;;6130444;23;20585;-81
2023/02/12 08:04:53;;;;;;;2.00;1.30;;;17.50;39.20;;;;;;6084467;23;20149;-81
2023/02/12 08:07:19;;;;;;;3.65;1.33;;;17.50;39.30;;;;;;6157477;23;20167;-82
2023/02/12 08:09:45;;;;;;;1.58;1.10;;;17.60;39.50;;;;;;6157836;23;20158;-80
2023/02/12 08:12:11;;;;;;;2.13;1.50;;;17.60;39.10;;;;;;6131939;23;20452;-80
2023/02/12 08:14:36;;;;;;;2.50;0.90;;;17.60;39.20;;;;;;6131306;23;20476;-79
2023/02/12 08:17:03;;;;;;;4.93;1.33;;;17.60;39.20;;;;;;6158213;23;20135;-80
2023/02/12 08:19:28;;;;;;;3.83;1.13;;;17.50;39.20;;;;;;6158044;23;20173;-81
2023/02/12 08:21:55;;;;;;;3.55;1.10;;;17.60;39.40;;;;;;6157942;23;20510;-81
2023/02/12 08:24:20;;;;;;;2.78;1.05;;;17.70;39.50;;;;;;6107926;23;20140;-81
2023/02/12 08:26:46;;;;;;;2.92;1.20;;;17.70;39.40;;;;;;6107610;23;20167;-81
2023/02/12 08:29:14;;;;;;;5.43;1.55;;;17.60;39.40;;;;;;6158327;23;20160;-81
2023/02/12 08:31:42;;;;;;;3.53;1.05;;;17.70;39.30;;;;;;6158170;23;20136;-80
2023/02/12 08:34:22;;;;;;;1.65;1.10;;;17.80;39.40;;;;;;6107787;23;20559;-81
2023/02/12 08:36:48;;;;;;;2.08;1.20;;;17.90;39.10;;;;;;6134051;23;20166;-82
2023/02/12 08:39:14;;;;;;;2.13;1.10;;;18.00;39.10;;;;;;6131749;23;20136;-81
2023/02/12 08:41:41;;;;;;;1.92;0.98;;;18.00;39.10;;;;;;6108579;23;20548;-80
2023/02/12 08:44:06;;;;;;;8.40;1.60;;;18.10;39.00;;;;;;6132525;23;20146;-81
2023/02/12 08:46:34;;;;;;;2.88;1.08;;;18.10;39.10;;;;;;6131880;23;20534;-82
2023/02/12 08:49:04;;;;;;;3.03;1.10;;;18.10;39.10;;;;;;6108487;23;20145;-80
2023/02/12 08:51:33;;;;;;;5.57;1.45;;;18.10;39.00;;;;;;6108721;23;20290;-83
2023/02/12 08:53:59;;;;;;;5.13;1.20;;;18.20;39.00;;;;;;6132473;23;20134;-82
2023/02/12 08:56:26;;;;;;;2.55;1.10;;;18.20;38.90;;;;;;6131723;23;20230;-83
2023/02/12 08:58:51;;;;;;;5.00;1.20;;;18.30;39.00;;;;;;6109179;23;20136;-82
2023/02/12 09:01:19;;;;;;;3.13;1.13;;;18.20;39.00;;;;;;6082504;23;20155;-82
2023/02/12 09:03:48;;;;;;;7.82;1.15;;;18.20;39.10;;;;;;6109440;23;20146;-80
2023/02/12 09:06:15;;;;;;;5.90;1.15;;;18.30;39.30;;;;;;6131285;23;20246;-81
2023/02/12 09:08:40;;;;;;;8.98;1.48;;;18.30;39.50;;;;;;6133377;23;20211;-81
2023/02/12 09:11:07;;;;;;;8.35;1.70;;;18.20;39.40;;;;;;6160326;23;20159;-82
2023/02/12 09:13:34;;;;;;;8.82;1.80;;;18.30;39.60;;;;;;6137612;23;20151;-81
2023/02/12 09:16:01;;;;;;;12.65;1.92;;;18.30;39.90;;;;;;6134647;23;20155;-80
2023/02/12 09:18:27;;;;;;;6.53;1.40;;;18.30;40.30;;;;;;6133284;23;20594;-80
2023/02/12 09:20:52;;;;;;;12.02;1.88;;;18.30;40.90;;;;;;6159210;23;20135;-80
2023/02/12 09:23:18;;;;;;;5.90;1.08;;;18.40;40.30;;;;;;6158550;23;20140;-80
2023/02/12 09:25:44;;;;;;;4.13;1.20;;;18.40;40.10;;;;;;6133871;23;20213;-81
2023/02/12 09:28:10;;;;;;;5.38;1.30;;;18.50;40.10;;;;;;6132806;23;20167;-81
2023/02/12 09:30:37;;;;;;;2.60;1.20;;;18.50;40.40;;;;;;6131391;23;20152;-83
2023/02/12 09:33:03;;;;;;;4.38;1.30;;;18.50;40.30;;;;;;6158036;23;20135;-82
2023/02/12 09:35:29;;;;;;;6.20;1.20;;;18.50;40.30;;;;;;6107704;23;20150;-83
2023/02/12 09:37:54;;;;;;;10.45;1.98;;;18.60;40.40;;;;;;6130300;23;20226;-82
2023/02/12 09:40:26;;;;;;;4.13;1.17;;;18.60;41.00;;;;;;6131227;23;20187;-81
2023/02/12 09:43:03;;;;;;;6.70;1.45;;;18.70;41.00;;;;;;6132496;23;20471;-80
2023/02/12 09:45:31;;;;;;;5.70;1.15;;;18.70;40.60;;;;;;6130555;23;20465;-80
2023/02/12 09:48:23;;;;;;;5.78;1.13;;;18.70;40.30;;;;;;6107970;23;20161;-82
2023/02/12 09:50:52;;;;;;;7.45;1.10;;;18.70;40.50;;;;;;6137095;23;20163;-81
2023/02/12 09:53:20;;;;;;;12.85;1.20;;;18.70;41.10;;;;;;6131475;23;20206;-81
2023/02/12 09:55:46;;;;;;;5.68;1.13;;;18.80;41.20;;;;;;6107343;23;20178;-82
2023/02/12 09:58:15;;;;;;;9.07;1.45;;;18.80;40.70;;;;;;6130986;23;20167;-80
2023/02/12 10:00:41;;;;;;;6.05;1.65;;;18.80;40.80;;;;;;6131889;23;20275;-79
2023/02/12 10:03:12;;;;;;;8.95;1.40;;;18.80;40.70;;;;;;6130059;23;20453;-80
2023/02/12 10:05:42;;;;;;;8.50;1.25;;;18.70;39.80;;;;;;6156160;23;20179;-80
2023/02/12 10:08:33;;;;;;;6.15;1.10;;;18.60;40.00;;;;;;6130983;23;20135;-81
2023/02/12 10:11:33;;;;;;;7.40;1.50;;;18.60;39.80;;;;;;6156769;23;20242;-81
2023/02/12 10:14:23;;;;;;;5.88;1.15;;;18.50;40.00;;;;;;6133582;23;20144;-79
2023/02/12 10:17:23;;;;;;;6.78;1.38;;;18.50;39.80;;;;;;6129504;23;20468;-80
2023/02/12 10:20:13;;;;;;;10.00;1.40;;;18.50;40.10;;;;;;6155785;23;20139;-79
2023/02/12 10:23:03;;;;;;;11.05;1.73;;;18.40;40.40;;;;;;6155687;23;20172;-80
2023/02/12 10:25:40;;;;;;;5.72;1.00;;;18.40;40.40;;;;;;6155557;23;20174;-80
2023/02/12 10:28:10;;;;;;;10.18;1.63;;;18.40;41.20;;;;;;6129753;23;20157;-79
2023/02/12 10:30:54;;;;;;;10.55;1.38;;;18.40;40.80;;;;;;6129673;23;20161;-80
2023/02/12 10:33:24;;;;;;;5.10;1.50;;;18.30;40.80;;;;;;6155567;23;20158;-81
2023/02/12 10:35:53;;;;;;;8.13;1.00;;;18.30;40.80;;;;;;6130595;23;20515;-80
2023/02/12 10:38:23;;;;;;;4.15;1.10;;;18.40;40.70;;;;;;6156731;23;20139;-81
2023/02/12 10:40:49;;;;;;;9.50;1.25;;;18.40;40.80;;;;;;6106971;23;20289;-81
2023/02/12 10:43:15;;;;;;;6.78;1.05;;;18.40;41.00;;;;;;6129665;23;20140;-81
2023/02/12 10:45:41;;;;;;;14.60;1.55;;;18.40;40.70;;;;;;6154800;23;20618;-80
2023/02/12 10:48:10;;;;;;;5.78;1.35;;;18.40;40.80;;;;;;6105111;23;20698;-81
2023/02/12 10:51:13;;;;;;;7.50;1.40;;;18.50;40.70;;;;;;6106481;23;20221;-82
2023/02/12 10:53:40;;;;;;;9.52;1.30;;;18.40;40.80;;;;;;6110929;23;20768;-83
2023/02/12 10:56:18;;;;;;;7.80;1.23;;;18.40;40.90;;;;;;6107136;23;20139;-82
2023/02/12 10:58:54;;;;;;;4.88;1.35;;;18.30;41.10;;;;;;6157577;23;20301;-82
2023/02/12 11:01:31;;;;;;;4.00;1.10;;;18.40;41.30;;;;;;6131269;23;20177;-81
2023/02/12 11:03:59;;;;;;;12.02;1.40;;;18.40;41.50;;;;;;6129396;23;20139;-81
2023/02/12 11:06:28;;;;;;;9.93;1.55;;;18.40;41.40;;;;;;6155844;23;20171;-82
2023/02/12 11:08:54;;;;;;;5.97;1.00;;;18.40;41.30;;;;;;6130303;23;20582;-81
2023/02/12 11:11:25;;;;;;;6.28;1.00;;;18.40;41.30;;;;;;6130233;23;20131;-81
2023/02/12 11:13:57;;;;;;;4.75;0.85;;;18.40;41.40;;;;;;6106697;23;20147;-81
2023/02/12 11:16:43;;;;;;;2.85;0.88;;;18.40;41.20;;;;;;6130915;23;20590;-81
2023/02/12 11:19:19;;;;;;;2.25;1.00;;;18.40;41.20;;;;;;6109808;23;20515;-81
2023/02/12 11:21:45;;;;;;;4.88;1.05;;;18.40;41.10;;;;;;6106519;23;20187;-81
2023/02/12 11:24:38;;;;;;;11.45;1.60;;;18.40;41.20;;;;;;6131149;23;20136;-82
2023/02/12 11:27:22;;;;;;;4.90;1.15;;;18.40;41.30;;;;;;6155819;23;20603;-81
2023/02/12 11:30:03;;;;;;;3.53;0.90;;;18.40;41.40;;;;;;6131327;23;20146;-81
2023/02/12 11:32:28;;;;;;;4.15;1.10;;;18.40;41.30;;;;;;6105233;23;20481;-80
2023/02/12 11:35:14;;;;;;;6.97;0.93;;;18.40;41.20;;;;;;6130077;23;20179;-81
2023/02/12 11:37:42;;;;;;;6.00;1.08;;;18.40;41.20;;;;;;6108706;23;20525;-82
2023/02/12 11:40:18;;;;;;;8.07;1.33;;;18.40;41.20;;;;;;6158391;23;20254;-81
2023/02/12 11:42:49;;;;;;;6.72;1.20;;;18.50;41.30;;;;;;6085107;23;20159;-80
2023/02/12 11:45:16;;;;;;;5.10;0.82;;;18.50;41.10;;;;;;6159535;23;20170;-80
2023/02/12 11:47:43;;;;;;;7.03;1.27;;;18.50;41.20;;;;;;6132283;23;20468;-82
2023/02/12 11:50:31;;;;;;;2.15;0.93;;;18.50;41.10;;;;;;6106758;23;20601;-82
2023/02/12 11:52:58;;;;;;;2.90;1.05;;;18.50;41.30;;;;;;6134518;23;20148;-81
2023/02/12 11:55:27;;;;;;;5.60;1.00;;;18.50;41.20;;;;;;6158194;23;20218;-81
2023/02/12 11:58:00;;;;;;;8.95;1.10;;;18.50;41.10;;;;;;6159813;23;20136;-81
2023/02/12 12:00:45;;;;;;;3.10;1.00;;;18.50;41.40;;;;;;6135032;23;20419;-81
2023/02/12 12:03:15;;;;;;;4.45;0.90;;;18.40;41.70;;;;;;6158957;23;20163;-81
2023/02/12 12:05:53;;;;;;;3.33;1.00;;;18.40;41.80;;;;;;6086782;23;20193;-81
2023/02/12 12:08:42;;;;;;;3.20;0.90;;;18.40;41.70;;;;;;6157894;23;20227;-81
2023/02/12 12:11:15;;;;;;;4.38;0.90;;;18.30;41.50;;;;;;6157856;23;20200;-81
2023/02/12 12:14:12;;;;;;;2.28;0.80;;;18.30;41.40;;;;;;6131631;23;20140;-82
2023/02/12 12:22:25;;;;;;;5.30;0.80;;;18.50;41.40;;;;;;6156946;23;20167;-81
2023/02/12 12:25:12;;;;;;;6.53;0.90;;;18.50;41.50;;;;;;6131459;23;20139;-82
2023/02/12 12:30:55;;;;;;;9.10;1.00;;;18.50;41.60;;;;;;6133118;23;20144;-80
2023/02/12 12:33:48;;;;;;;6.40;1.00;;;18.50;41.70;;;;;;6157149;23;20259;-80
2023/02/12 12:36:42;;;;;;;7.97;0.98;;;18.40;41.90;;;;;;6156739;23;20188;-81
2023/02/12 12:39:42;;;;;;;7.75;1.25;;;18.40;41.70;;;;;;6156583;23;20160;-81
2023/02/12 12:42:42;;;;;;;4.00;0.90;;;18.40;41.70;;;;;;6108528;23;20564;-80
2023/02/12 12:45:41;;;;;;;1.95;0.90;;;18.50;41.60;;;;;;6127548;23;20143;-80
2023/02/12 12:48:28;;;;;;;6.25;1.27;;;18.50;41.70;;;;;;6126434;23;20146;-80
2023/02/12 12:51:18;;;;;;;3.30;1.27;;;18.40;41.60;;;;;;6127000;23;20140;-80
2023/02/12 12:53:53;;;;;;;3.50;0.90;;;18.50;41.70;;;;;;6105495;23;20215;-80
2023/02/12 12:56:43;;;;;;;4.90;0.73;;;18.50;41.60;;;;;;6100736;23;20186;-80
2023/02/12 12:59:30;;;;;;;3.65;0.88;;;18.40;41.60;;;;;;6104121;23;20136;-81
2023/02/12 13:02:22;;;;;;;2.25;0.77;;;18.50;41.90;;;;;;6102526;23;20155;-80
2023/02/12 13:05:23;;;;;;;1.73;1.10;;;18.40;41.70;;;;;;6126756;23;20141;-81
2023/02/12 13:08:05;;;;;;;2.13;0.90;;;18.50;41.70;;;;;;6105053;23;20139;-80
2023/02/12 13:10:44;;;;;;;1.98;0.75;;;18.50;41.60;;;;;;6100957;23;20140;-80
2023/02/12 13:13:30;;;;;;;6.45;0.93;;;18.50;41.80;;;;;;6078843;23;20163;-81
2023/02/12 13:16:29;;;;;;;1.08;0.77;;;18.40;41.60;;;;;;6127104;23;20519;-80